This is the latest recevied weather packets stored in our database for station/object K5FEP. If no packets are shown the sender has not sent any weather packets the latest 10 day(s).
| Time | Temp. | Humidity | Pressure | Rain* | Wind** | Luminosity | Snow |
|---|---|---|---|---|---|---|---|
| 1777133768 | 27.22° C | 42% | 1008.2 hPa | 0 mm | - | 872 W/m² | - |
| 1777133463 | 27.78° C | 41% | 1008.1 hPa | 0 mm | - | 856 W/m² | - |
| 1777133163 | 27.78° C | 41% | 1008.4 hPa | 0 mm | - | 873 W/m² | - |
| 1777132858 | 27.22° C | 40% | 1008.2 hPa | 0 mm | - | 802 W/m² | - |
| 1777132554 | 27.22° C | 42% | 1008.3 hPa | 0 mm | - | 852 W/m² | - |
| 1777132251 | 27.22° C | 41% | 1008.4 hPa | 0 mm | - | 811 W/m² | - |
| 1777131947 | 27.22° C | 42% | 1008.3 hPa | 0 mm | - | 772 W/m² | - |
| 1777131645 | 26.11° C | 42% | 1008.4 hPa | 0 mm | - | 683 W/m² | - |
| 1777131345 | 26.11° C | 43% | 1008.4 hPa | 0 mm | - | 652 W/m² | - |
| 1777131045 | 26.11° C | 44% | 1008.5 hPa | 0 mm | - | 684 W/m² | - |
| 1777130741 | 26.11° C | 43% | 1008.6 hPa | 0 mm | - | 770 W/m² | - |
| 1777130438 | 25.56° C | 45% | 1008.6 hPa | 0 mm | - | 648 W/m² | - |
| 1777130133 | 25.56° C | 45% | 1008.5 hPa | 0 mm | - | 730 W/m² | - |
| 1777129830 | 25° C | 46% | 1008.6 hPa | 0 mm | - | 655 W/m² | - |
| 1777129525 | 25.56° C | 44% | 1008.5 hPa | 0 mm | - | 678 W/m² | - |
| 1777129224 | 25° C | 47% | 1008.6 hPa | 0 mm | - | 663 W/m² | - |
| 1777128920 | 24.44° C | 47% | 1008.4 hPa | 0 mm | - | 707 W/m² | - |
| 1777128617 | 24.44° C | 47% | 1008.6 hPa | 0 mm | - | 579 W/m² | - |
| 1777128315 | 24.44° C | 47% | 1008.5 hPa | 0 mm | - | 561 W/m² | - |
| 1777128011 | 24.44° C | 49% | 1008.4 hPa | 0 mm | - | 681 W/m² | - |
| 1777127709 | 23.89° C | 51% | 1008.4 hPa | 0 mm | - | 506 W/m² | - |
| 1777127406 | 23.89° C | 50% | 1008.5 hPa | 0 mm | - | 605 W/m² | - |
| 1777127101 | 23.33° C | 52% | 1008.7 hPa | 0 mm | - | 584 W/m² | - |
| 1777126797 | 23.89° C | 50% | 1008.5 hPa | 0 mm | - | 566 W/m² | - |
| 1777126494 | 23.89° C | 49% | 1008.8 hPa | 0 mm | - | 563 W/m² | - |
* Rain latest hour (hover to see other rain measurements)
** Current wind speed in m/s (hover to see current wind gust speed)